createdAt,value
2023-02-16T00:00:30.412Z,93.73
2023-02-16T00:01:30.450Z,93.68
2023-02-16T00:02:27.015Z,93.35
2023-02-16T00:03:23.652Z,93.52
2023-02-16T00:04:27.520Z,93.78
2023-02-16T00:05:32.794Z,93.51
2023-02-16T00:06:29.635Z,94.01
2023-02-16T00:07:26.182Z,93.84
2023-02-16T00:08:22.850Z,93.55
2023-02-16T00:09:20.874Z,93.45
2023-02-16T00:10:17.529Z,93.60
2023-02-16T00:11:37.056Z,93.69
2023-02-16T00:12:52.294Z,93.71
2023-02-16T00:13:48.971Z,93.70
2023-02-16T00:14:45.654Z,93.51
2023-02-16T00:15:42.563Z,93.60
2023-02-16T00:16:39.517Z,93.54
2023-02-16T00:17:36.169Z,93.29
2023-02-16T00:18:32.740Z,92.85
2023-02-16T00:19:40.780Z,92.42
2023-02-16T00:20:37.322Z,92.69
2023-02-16T00:21:33.864Z,92.53
2023-02-16T00:22:30.427Z,92.47
2023-02-16T00:23:26.969Z,92.76
2023-02-16T00:24:24.706Z,92.52
2023-02-16T00:25:21.265Z,92.51
2023-02-16T00:26:26.055Z,92.39
2023-02-16T00:27:22.622Z,92.55
2023-02-16T00:28:21.147Z,92.29
2023-02-16T00:29:20.506Z,91.85
2023-02-16T00:30:20.844Z,91.44
2023-02-16T00:31:23.396Z,91.36
2023-02-16T00:32:20.177Z,91.16
2023-02-16T00:33:19.649Z,90.86
2023-02-16T00:34:24.029Z,90.75
2023-02-16T00:35:21.979Z,90.50
2023-02-16T00:36:18.884Z,90.44
2023-02-16T00:37:15.565Z,90.47
2023-02-16T00:38:13.190Z,90.50
2023-02-16T00:39:09.754Z,90.86
2023-02-16T00:40:07.084Z,91.05
2023-02-16T00:41:04.300Z,91.28
2023-02-16T00:42:06.387Z,91.72
2023-02-16T00:43:03.600Z,92.14
2023-02-16T00:44:00.229Z,92.62
2023-02-16T00:44:57.976Z,92.96
2023-02-16T00:45:55.229Z,92.77
2023-02-16T00:46:52.000Z,92.78
2023-02-16T00:47:51.819Z,92.75
2023-02-16T00:48:48.399Z,92.66
2023-02-16T00:49:45.331Z,92.52
2023-02-16T00:50:41.939Z,92.00
2023-02-16T00:51:38.528Z,92.01
2023-02-16T00:52:36.861Z,91.48
2023-02-16T00:53:33.471Z,91.20
2023-02-16T00:54:31.946Z,91.07
2023-02-16T00:55:33.534Z,90.75
2023-02-16T00:56:30.177Z,90.51
2023-02-16T00:57:31.021Z,90.11
2023-02-16T00:58:31.105Z,90.22
2023-02-16T00:59:27.827Z,89.50
2023-02-16T01:00:28.627Z,88.95
2023-02-16T01:01:29.301Z,88.97
2023-02-16T01:02:25.938Z,88.87
2023-02-16T01:03:26.208Z,88.51
2023-02-16T01:04:23.853Z,87.95
2023-02-16T01:05:20.719Z,87.79
2023-02-16T01:06:35.892Z,87.27
2023-02-16T01:07:50.980Z,87.68
2023-02-16T01:09:05.995Z,88.66
2023-02-16T01:10:21.446Z,89.19
2023-02-16T01:11:19.126Z,89.01
2023-02-16T01:12:18.796Z,89.17
2023-02-16T01:13:15.794Z,89.25
2023-02-16T01:14:13.466Z,89.31
2023-02-16T01:15:13.858Z,89.24
2023-02-16T01:16:14.811Z,89.45
2023-02-16T01:17:11.713Z,88.99
2023-02-16T01:18:08.796Z,88.63
2023-02-16T01:19:06.790Z,88.79
2023-02-16T01:20:03.673Z,89.05
2023-02-16T01:21:00.255Z,89.38
2023-02-16T01:21:56.836Z,89.93
2023-02-16T01:22:53.458Z,90.35
2023-02-16T01:23:50.142Z,90.36
2023-02-16T01:24:46.760Z,90.46
2023-02-16T01:25:43.446Z,90.90
2023-02-16T01:26:44.100Z,91.40
2023-02-16T01:27:41.464Z,91.51
2023-02-16T01:28:38.205Z,91.86
2023-02-16T01:29:34.745Z,92.20
2023-02-16T01:30:31.437Z,92.18
2023-02-16T01:31:28.185Z,92.60
2023-02-16T01:32:24.981Z,92.66
2023-02-16T01:33:22.189Z,92.69
2023-02-16T01:34:18.802Z,93.29
2023-02-16T01:35:15.426Z,93.22
2023-02-16T01:36:26.610Z,93.05
2023-02-16T01:37:23.820Z,93.03
2023-02-16T01:38:23.114Z,93.06
2023-02-16T01:39:20.772Z,93.03
2023-02-16T01:40:38.324Z,93.01
2023-02-16T01:41:44.653Z,92.37
2023-02-16T01:42:52.078Z,92.30
2023-02-16T01:43:55.233Z,92.03
2023-02-16T01:44:57.258Z,92.11
2023-02-16T01:46:06.691Z,92.46
2023-02-16T01:47:31.385Z,92.68
2023-02-16T01:48:31.137Z,92.86
2023-02-16T01:49:28.098Z,93.19
2023-02-16T01:50:27.710Z,93.23
2023-02-16T01:51:29.509Z,93.04
2023-02-16T01:52:41.878Z,92.78
2023-02-16T01:54:01.680Z,92.87
2023-02-16T01:55:10.559Z,92.90
2023-02-16T01:56:19.316Z,93.12
2023-02-16T01:57:34.116Z,93.26
2023-02-16T01:58:54.399Z,93.46
2023-02-16T01:59:50.995Z,93.34
2023-02-16T02:00:54.831Z,93.51
2023-02-16T02:02:03.563Z,93.40
2023-02-16T02:03:21.568Z,93.35
2023-02-16T02:04:40.264Z,93.62
2023-02-16T02:05:37.198Z,94.04
2023-02-16T02:06:35.451Z,94.07
2023-02-16T02:07:42.063Z,94.18
2023-02-16T02:08:56.644Z,94.08
2023-02-16T02:10:25.607Z,94.00
2023-02-16T02:11:33.167Z,94.18
2023-02-16T02:12:37.437Z,94.06
2023-02-16T02:13:43.449Z,93.60
2023-02-16T02:14:40.776Z,93.18
2023-02-16T02:15:37.451Z,92.40
2023-02-16T02:16:34.175Z,92.16
2023-02-16T02:17:31.529Z,91.84
2023-02-16T02:18:28.087Z,91.72
2023-02-16T02:19:25.006Z,91.73
2023-02-16T02:20:58.178Z,91.67
2023-02-16T02:22:51.926Z,91.46
2023-02-16T02:24:26.087Z,91.17
2023-02-16T02:25:28.470Z,91.05
2023-02-16T02:26:43.993Z,90.55
2023-02-16T02:28:03.700Z,90.22
2023-02-16T02:29:18.849Z,90.51
2023-02-16T02:30:21.229Z,90.17
2023-02-16T02:31:37.128Z,90.19
2023-02-16T02:32:54.967Z,90.67
2023-02-16T02:34:18.138Z,91.04
2023-02-16T02:35:47.722Z,90.57
2023-02-16T02:36:58.918Z,91.18
2023-02-16T02:38:30.821Z,91.74
2023-02-16T02:39:46.709Z,91.65
2023-02-16T02:41:22.775Z,92.20
2023-02-16T02:42:43.660Z,92.30
2023-02-16T02:43:49.200Z,92.38
2023-02-16T02:44:48.742Z,92.44
2023-02-16T02:45:56.403Z,92.49
2023-02-16T02:46:53.927Z,92.24
2023-02-16T02:47:50.620Z,92.24
2023-02-16T02:48:47.226Z,92.40
2023-02-16T02:49:54.627Z,92.52
2023-02-16T02:51:17.004Z,92.47
2023-02-16T02:52:13.738Z,92.09
2023-02-16T02:53:14.116Z,92.04
2023-02-16T02:54:43.620Z,92.37
2023-02-16T02:56:04.646Z,92.60
2023-02-16T02:57:40.592Z,93.46
2023-02-16T02:58:57.468Z,93.79
2023-02-16T03:00:21.661Z,93.75
2023-02-16T03:01:20.514Z,94.08
2023-02-16T03:02:19.011Z,94.32
2023-02-16T03:03:32.111Z,94.38
2023-02-16T03:04:30.713Z,94.41
2023-02-16T03:05:31.414Z,94.57
2023-02-16T03:06:33.872Z,94.45
2023-02-16T03:07:46.824Z,94.54
2023-02-16T03:08:48.157Z,94.64
2023-02-16T03:09:44.846Z,94.58
2023-02-16T03:11:22.799Z,94.81
2023-02-16T03:12:38.083Z,94.95
2023-02-16T03:14:00.272Z,94.88
2023-02-16T03:15:00.498Z,95.06
2023-02-16T03:15:59.031Z,94.90
2023-02-16T03:17:18.135Z,94.89
2023-02-16T03:18:35.540Z,94.29
2023-02-16T03:19:50.849Z,94.90
2023-02-16T03:21:06.240Z,95.42
2023-02-16T03:22:22.734Z,95.86
2023-02-16T03:23:37.911Z,96.07
2023-02-16T03:24:53.234Z,96.32
2023-02-16T03:26:10.654Z,96.77
2023-02-16T03:27:27.259Z,97.11
2023-02-16T03:28:47.358Z,97.31
2023-02-16T03:29:46.646Z,97.46
2023-02-16T03:30:45.387Z,97.60
2023-02-16T03:31:43.344Z,97.54
2023-02-16T03:32:40.104Z,97.68
2023-02-16T03:33:36.983Z,97.36
2023-02-16T03:34:36.230Z,97.58
2023-02-16T03:35:33.020Z,97.53
2023-02-16T03:36:31.729Z,97.60
2023-02-16T03:37:28.332Z,97.81
2023-02-16T03:38:25.487Z,97.72
2023-02-16T03:39:22.138Z,97.72
2023-02-16T03:40:28.611Z,97.72
2023-02-16T03:41:26.516Z,98.05
2023-02-16T03:42:24.169Z,97.84
2023-02-16T03:43:25.145Z,97.74
2023-02-16T03:44:22.378Z,97.67
2023-02-16T03:45:20.754Z,97.23
2023-02-16T03:46:17.593Z,97.02
2023-02-16T03:47:14.716Z,97.17
2023-02-16T03:48:11.767Z,97.31
2023-02-16T03:49:08.456Z,96.80
2023-02-16T03:50:05.613Z,96.53
2023-02-16T03:51:02.316Z,96.25
2023-02-16T03:51:59.018Z,96.01
2023-02-16T03:53:06.872Z,95.71
2023-02-16T03:54:03.750Z,95.44
2023-02-16T03:55:00.595Z,95.60
2023-02-16T03:55:57.160Z,95.59
2023-02-16T03:56:53.778Z,95.07
2023-02-16T03:57:50.436Z,94.60
2023-02-16T03:58:46.976Z,94.51
2023-02-16T03:59:43.506Z,93.86
2023-02-16T04:00:41.090Z,94.36
2023-02-16T04:01:37.701Z,94.82
2023-02-16T04:02:34.235Z,95.08
2023-02-16T04:03:30.902Z,95.11
2023-02-16T04:04:27.630Z,95.44
2023-02-16T04:05:24.401Z,95.75
2023-02-16T04:06:21.019Z,95.84
2023-02-16T04:07:17.670Z,95.94
2023-02-16T04:08:14.277Z,96.06
2023-02-16T04:09:11.097Z,95.93
2023-02-16T04:10:08.002Z,96.58
2023-02-16T04:11:24.272Z,96.39
2023-02-16T04:12:39.132Z,96.33
2023-02-16T04:13:37.616Z,96.28
2023-02-16T04:14:34.176Z,96.50
2023-02-16T04:15:31.794Z,96.75
2023-02-16T04:16:28.452Z,96.96
2023-02-16T04:17:25.334Z,97.12
2023-02-16T04:18:21.973Z,97.16
2023-02-16T04:19:18.550Z,97.07
2023-02-16T04:20:18.343Z,96.89
2023-02-16T04:21:15.026Z,96.68
2023-02-16T04:22:11.607Z,96.64
2023-02-16T04:23:08.299Z,96.48
2023-02-16T04:24:06.330Z,96.32
2023-02-16T04:25:02.893Z,96.03
2023-02-16T04:25:59.430Z,95.98
2023-02-16T04:26:56.089Z,95.56
2023-02-16T04:27:53.568Z,95.48
2023-02-16T04:28:50.155Z,95.20
2023-02-16T04:29:46.736Z,94.89
2023-02-16T04:30:43.430Z,95.16
2023-02-16T04:31:40.135Z,95.36
2023-02-16T04:32:36.862Z,95.35
2023-02-16T04:33:33.520Z,95.45
2023-02-16T04:34:30.159Z,95.50
2023-02-16T04:35:27.155Z,95.23
2023-02-16T04:36:23.759Z,95.37
2023-02-16T04:37:20.969Z,95.42
2023-02-16T04:38:17.644Z,95.43
2023-02-16T04:39:14.265Z,95.35
2023-02-16T04:40:16.210Z,95.58
2023-02-16T04:41:12.921Z,95.72
2023-02-16T04:42:09.567Z,95.39
2023-02-16T04:43:06.310Z,95.57
2023-02-16T04:44:03.161Z,95.64
2023-02-16T04:44:59.777Z,95.63
2023-02-16T04:45:56.406Z,95.68
2023-02-16T04:46:53.121Z,95.42
2023-02-16T04:47:49.767Z,95.52
2023-02-16T04:48:46.643Z,95.75
2023-02-16T04:49:43.361Z,95.23
2023-02-16T04:50:40.020Z,95.19
2023-02-16T04:51:36.649Z,95.49
2023-02-16T04:52:34.424Z,95.07
2023-02-16T04:53:31.030Z,95.17
2023-02-16T04:54:28.042Z,95.34
2023-02-16T04:55:25.613Z,95.41
2023-02-16T04:56:22.207Z,95.66
2023-02-16T04:57:21.394Z,95.65
2023-02-16T04:58:17.967Z,95.93
2023-02-16T04:59:15.771Z,95.56
2023-02-16T05:00:14.023Z,95.21
2023-02-16T05:01:22.010Z,94.78
2023-02-16T05:02:18.768Z,94.44
2023-02-16T05:03:15.378Z,94.28
2023-02-16T05:04:12.088Z,94.37
2023-02-16T05:05:09.186Z,94.27
2023-02-16T05:06:05.867Z,94.22
2023-02-16T05:07:02.482Z,94.28
2023-02-16T05:07:59.100Z,94.45
2023-02-16T05:08:55.661Z,94.75
2023-02-16T05:09:52.312Z,94.71
2023-02-16T05:11:08.890Z,94.91
2023-02-16T05:12:24.373Z,94.75
2023-02-16T05:13:40.247Z,95.03
2023-02-16T05:14:47.284Z,94.90
2023-02-16T05:15:45.191Z,95.22
2023-02-16T05:16:42.173Z,95.48
2023-02-16T05:17:38.835Z,95.15
2023-02-16T05:18:35.432Z,95.05
2023-02-16T05:19:32.326Z,95.31
2023-02-16T05:20:47.673Z,95.51
2023-02-16T05:21:44.201Z,96.09
2023-02-16T05:22:40.873Z,95.94
2023-02-16T05:23:37.463Z,96.09
2023-02-16T05:24:34.967Z,96.12
2023-02-16T05:25:31.506Z,96.31
2023-02-16T05:26:28.770Z,96.18
2023-02-16T05:27:27.690Z,96.12
2023-02-16T05:28:24.356Z,96.18
2023-02-16T05:29:21.352Z,95.92
2023-02-16T05:30:17.982Z,95.74
2023-02-16T05:31:14.731Z,95.64
2023-02-16T05:32:11.567Z,95.54
2023-02-16T05:33:08.170Z,95.44
2023-02-16T05:34:05.238Z,95.58
2023-02-16T05:35:01.897Z,95.21
2023-02-16T05:35:58.537Z,95.38
2023-02-16T05:36:55.289Z,95.00
2023-02-16T05:37:51.849Z,94.90
2023-02-16T05:38:48.955Z,94.65
2023-02-16T05:39:45.919Z,94.60
2023-02-16T05:40:42.538Z,94.60
2023-02-16T05:41:39.207Z,94.64
2023-02-16T05:42:35.890Z,94.35
2023-02-16T05:43:32.458Z,94.49
2023-02-16T05:44:29.133Z,94.58
2023-02-16T05:45:25.727Z,94.75
2023-02-16T05:46:23.815Z,95.03
2023-02-16T05:47:20.473Z,95.01
2023-02-16T05:48:17.811Z,94.86
2023-02-16T05:49:16.170Z,95.08
2023-02-16T05:50:12.725Z,95.11
2023-02-16T05:51:09.309Z,95.11
2023-02-16T05:52:06.018Z,95.16
2023-02-16T05:53:02.571Z,95.36
2023-02-16T05:53:59.561Z,95.16
2023-02-16T05:54:58.157Z,95.01
2023-02-16T05:55:54.742Z,95.12
2023-02-16T05:56:52.609Z,95.41
2023-02-16T05:57:49.242Z,95.52
2023-02-16T05:58:46.221Z,95.56
2023-02-16T05:59:42.796Z,95.53
2023-02-16T06:00:39.382Z,95.73
2023-02-16T06:01:35.982Z,95.67
2023-02-16T06:02:32.563Z,95.83
2023-02-16T06:03:29.218Z,95.93
2023-02-16T06:04:25.970Z,95.73
2023-02-16T06:05:22.572Z,95.84
2023-02-16T06:06:19.683Z,95.84
2023-02-16T06:07:16.238Z,95.95
2023-02-16T06:08:12.848Z,95.67
2023-02-16T06:09:09.556Z,95.27
2023-02-16T06:10:06.839Z,94.67
2023-02-16T06:11:04.258Z,94.39
2023-02-16T06:12:01.123Z,93.92
2023-02-16T06:12:57.917Z,93.48
2023-02-16T06:13:59.450Z,92.91
2023-02-16T06:14:56.087Z,92.36
2023-02-16T06:15:55.528Z,92.19
2023-02-16T06:16:52.191Z,92.54
2023-02-16T06:17:48.808Z,92.40
2023-02-16T06:18:45.417Z,92.52
2023-02-16T06:19:42.035Z,92.73
2023-02-16T06:20:39.504Z,92.77
2023-02-16T06:21:36.798Z,92.97
2023-02-16T06:22:33.587Z,92.63
2023-02-16T06:23:30.190Z,92.90
2023-02-16T06:24:27.146Z,92.51
2023-02-16T06:25:23.755Z,92.23
2023-02-16T06:26:20.734Z,91.59
2023-02-16T06:27:17.347Z,90.41
2023-02-16T06:28:14.000Z,90.92
2023-02-16T06:29:10.862Z,90.78
2023-02-16T06:30:08.789Z,90.64
2023-02-16T06:31:05.772Z,90.82
2023-02-16T06:32:02.712Z,90.70
2023-02-16T06:32:59.509Z,90.19
2023-02-16T06:33:57.127Z,90.25
2023-02-16T06:34:53.767Z,90.34
2023-02-16T06:35:50.374Z,90.13
2023-02-16T06:36:47.223Z,90.55
2023-02-16T06:37:44.090Z,90.17
2023-02-16T06:38:40.850Z,89.66
2023-02-16T06:39:37.512Z,89.70
2023-02-16T06:40:34.260Z,89.09
2023-02-16T06:41:38.021Z,88.75
2023-02-16T06:42:34.633Z,89.05
2023-02-16T06:43:31.539Z,89.10
2023-02-16T06:44:28.613Z,88.85
2023-02-16T06:45:25.274Z,89.23
2023-02-16T06:46:22.045Z,88.77
2023-02-16T06:47:18.617Z,88.43
2023-02-16T06:48:15.331Z,88.13
2023-02-16T06:49:14.344Z,88.32
2023-02-16T06:50:13.714Z,88.28
2023-02-16T06:51:10.349Z,88.13
2023-02-16T06:52:06.991Z,88.59
2023-02-16T06:53:03.903Z,88.04
2023-02-16T06:54:00.642Z,88.37
2023-02-16T06:54:57.293Z,89.05
2023-02-16T06:55:53.991Z,87.29
2023-02-16T06:56:50.564Z,86.53
2023-02-16T06:57:47.150Z,86.55
2023-02-16T06:58:43.751Z,85.87
2023-02-16T06:59:40.475Z,85.31
2023-02-16T07:00:37.257Z,85.33
2023-02-16T07:01:34.210Z,84.62
2023-02-16T07:02:30.816Z,85.60
2023-02-16T07:03:27.488Z,85.38
2023-02-16T07:04:24.094Z,85.46
2023-02-16T07:05:20.727Z,84.87
2023-02-16T07:06:17.549Z,84.81
2023-02-16T07:07:14.434Z,84.78
2023-02-16T07:08:11.193Z,83.10
2023-02-16T07:09:07.791Z,83.05
2023-02-16T07:10:04.593Z,83.50
2023-02-16T07:11:01.235Z,82.29
2023-02-16T07:11:58.399Z,81.86
2023-02-16T07:12:55.082Z,80.93
2023-02-16T07:13:51.879Z,80.48
2023-02-16T07:14:48.489Z,81.26
2023-02-16T07:15:45.164Z,82.04
2023-02-16T07:16:42.056Z,82.88
2023-02-16T07:17:38.725Z,83.11
2023-02-16T07:18:35.669Z,83.53
2023-02-16T07:19:33.762Z,83.48
2023-02-16T07:20:30.396Z,82.97
2023-02-16T07:21:27.190Z,82.92
2023-02-16T07:22:23.852Z,82.13
2023-02-16T07:23:21.244Z,80.74
2023-02-16T07:24:18.193Z,80.46
2023-02-16T07:25:14.815Z,80.35
2023-02-16T07:26:11.681Z,79.55
2023-02-16T07:27:08.728Z,79.85
2023-02-16T07:28:05.335Z,79.69
2023-02-16T07:29:01.982Z,80.47
2023-02-16T07:29:58.633Z,79.78
2023-02-16T07:30:55.455Z,80.33
2023-02-16T07:31:52.482Z,81.13
2023-02-16T07:32:49.470Z,80.23
2023-02-16T07:33:46.091Z,79.92
2023-02-16T07:34:42.759Z,80.05
2023-02-16T07:35:39.562Z,80.39
2023-02-16T07:36:36.146Z,79.16
2023-02-16T07:37:32.737Z,79.59
2023-02-16T07:38:30.808Z,80.75
2023-02-16T07:39:29.440Z,81.43
2023-02-16T07:40:26.737Z,81.31
2023-02-16T07:41:23.486Z,80.38
2023-02-16T07:42:21.313Z,80.70
2023-02-16T07:43:18.513Z,81.09
2023-02-16T07:44:15.174Z,80.69
2023-02-16T07:45:11.738Z,80.52
2023-02-16T07:46:08.584Z,80.35
2023-02-16T07:47:05.244Z,79.50
2023-02-16T07:48:02.413Z,79.17
2023-02-16T07:48:59.219Z,79.11
2023-02-16T07:49:55.820Z,79.59
2023-02-16T07:50:52.728Z,79.89
2023-02-16T07:51:49.307Z,79.70
2023-02-16T07:52:45.978Z,80.36
2023-02-16T07:53:42.585Z,80.26
2023-02-16T07:54:39.428Z,79.88
2023-02-16T07:55:43.508Z,80.14
2023-02-16T07:56:40.137Z,80.32
2023-02-16T07:57:38.715Z,79.69
2023-02-16T07:58:36.795Z,78.83
2023-02-16T07:59:33.490Z,78.63
2023-02-16T08:00:30.143Z,78.22
2023-02-16T08:01:26.864Z,78.09
2023-02-16T08:02:23.960Z,77.67
2023-02-16T08:03:20.704Z,77.19
2023-02-16T08:04:17.303Z,77.88
2023-02-16T08:05:14.058Z,77.58
2023-02-16T08:06:10.892Z,77.46
2023-02-16T08:07:07.517Z,76.37
2023-02-16T08:08:04.995Z,76.10
2023-02-16T08:09:01.671Z,75.77
2023-02-16T08:09:59.046Z,76.27
2023-02-16T08:10:55.778Z,76.74
2023-02-16T08:11:52.302Z,77.00
2023-02-16T08:12:49.919Z,76.22
2023-02-16T08:13:47.300Z,76.73
2023-02-16T08:14:44.825Z,76.71
2023-02-16T08:15:44.364Z,76.78
2023-02-16T08:16:40.936Z,76.13
2023-02-16T08:17:37.822Z,75.08
2023-02-16T08:18:35.447Z,74.85
2023-02-16T08:19:32.140Z,75.38
2023-02-16T08:20:46.059Z,75.54
2023-02-16T08:21:49.374Z,76.03
2023-02-16T08:22:46.034Z,75.50
2023-02-16T08:24:07.679Z,75.42
2023-02-16T08:25:07.009Z,75.76
2023-02-16T08:26:11.545Z,74.63
2023-02-16T08:27:08.222Z,74.52
2023-02-16T08:28:06.987Z,74.66
2023-02-16T08:29:05.527Z,75.14
2023-02-16T08:30:02.264Z,74.59
2023-02-16T08:31:04.150Z,74.31
2023-02-16T08:32:01.468Z,74.87
2023-02-16T08:33:01.108Z,73.88
2023-02-16T08:34:00.392Z,74.18
2023-02-16T08:34:57.441Z,74.63
2023-02-16T08:35:54.054Z,74.84
2023-02-16T08:36:56.821Z,74.04
2023-02-16T08:37:53.514Z,73.79
2023-02-16T08:38:52.204Z,73.85
2023-02-16T08:39:49.392Z,72.96
2023-02-16T08:40:50.049Z,73.69
2023-02-16T08:41:48.733Z,73.91
2023-02-16T08:42:45.454Z,72.65
2023-02-16T08:43:42.043Z,73.16
2023-02-16T08:44:39.530Z,72.65
2023-02-16T08:45:36.318Z,72.83
2023-02-16T08:46:34.384Z,74.14
2023-02-16T08:47:31.420Z,74.03
2023-02-16T08:48:28.972Z,73.46
2023-02-16T08:49:26.062Z,72.97
2023-02-16T08:50:22.672Z,73.12
2023-02-16T08:51:20.411Z,73.72
2023-02-16T08:52:16.996Z,73.52
2023-02-16T08:53:15.461Z,74.50
2023-02-16T08:54:16.932Z,73.44
2023-02-16T08:55:14.053Z,71.91
2023-02-16T08:56:12.719Z,72.73
2023-02-16T08:57:09.461Z,72.02
2023-02-16T08:58:06.046Z,71.30
2023-02-16T08:59:02.810Z,70.67
2023-02-16T09:00:17.813Z,69.92
2023-02-16T09:01:15.361Z,71.17
2023-02-16T09:02:12.430Z,71.10
2023-02-16T09:03:09.017Z,71.17
2023-02-16T09:04:05.828Z,70.08
2023-02-16T09:05:02.542Z,70.16
2023-02-16T09:06:02.830Z,70.34
2023-02-16T09:06:59.939Z,71.14
2023-02-16T09:07:57.630Z,69.97
2023-02-16T09:08:57.009Z,70.53
2023-02-16T09:09:53.602Z,69.70
2023-02-16T09:10:50.369Z,69.39
2023-02-16T09:11:47.281Z,68.94
2023-02-16T09:12:43.912Z,68.97
2023-02-16T09:13:41.190Z,69.56
2023-02-16T09:14:37.810Z,69.26
2023-02-16T09:15:34.870Z,70.10
2023-02-16T09:16:35.449Z,70.65
2023-02-16T09:17:32.097Z,69.27
2023-02-16T09:18:28.735Z,69.37
2023-02-16T09:19:26.039Z,70.54
2023-02-16T09:20:23.774Z,70.44
2023-02-16T09:21:25.474Z,69.54
2023-02-16T09:22:22.527Z,68.86
2023-02-16T09:23:20.596Z,68.32
2023-02-16T09:24:17.293Z,68.47
2023-02-16T09:25:15.673Z,68.66
2023-02-16T09:26:12.326Z,67.33
2023-02-16T09:27:09.380Z,67.95
2023-02-16T09:28:06.806Z,68.85
2023-02-16T09:29:04.579Z,68.80
2023-02-16T09:30:01.265Z,68.85
2023-02-16T09:30:58.946Z,68.74
2023-02-16T09:31:55.799Z,68.77
2023-02-16T09:32:52.520Z,69.29
2023-02-16T09:33:49.210Z,69.30
2023-02-16T09:34:47.036Z,67.53
2023-02-16T09:35:43.641Z,65.82
2023-02-16T09:36:40.349Z,67.13
2023-02-16T09:37:36.939Z,66.37
2023-02-16T09:38:34.126Z,66.76
2023-02-16T09:39:31.037Z,66.85
2023-02-16T09:40:27.601Z,67.30
2023-02-16T09:41:39.280Z,66.96
2023-02-16T09:42:55.016Z,65.76
2023-02-16T09:44:21.891Z,63.99
2023-02-16T09:45:20.562Z,65.00
2023-02-16T09:46:22.543Z,65.07
2023-02-16T09:47:31.441Z,65.13
2023-02-16T09:48:37.589Z,65.36
2023-02-16T09:49:38.937Z,66.25
2023-02-16T09:50:53.061Z,66.15
2023-02-16T09:52:00.670Z,66.25
2023-02-16T09:53:10.042Z,65.97
2023-02-16T09:54:35.937Z,65.17
2023-02-16T09:55:46.568Z,62.74
2023-02-16T09:57:08.367Z,63.80
2023-02-16T09:58:19.062Z,64.42
2023-02-16T09:59:36.552Z,64.06
2023-02-16T10:00:33.223Z,64.30
2023-02-16T10:01:47.827Z,64.55
2023-02-16T10:02:57.892Z,65.53
2023-02-16T10:04:23.841Z,62.40
2023-02-16T10:05:31.097Z,62.87
2023-02-16T10:06:58.470Z,61.47
2023-02-16T10:07:57.482Z,61.82
2023-02-16T10:09:09.646Z,62.02
2023-02-16T10:10:08.086Z,62.69
2023-02-16T10:11:30.423Z,64.04
2023-02-16T10:12:37.374Z,63.46
2023-02-16T10:13:44.073Z,64.58
2023-02-16T10:14:47.204Z,62.01
2023-02-16T10:15:45.482Z,61.09
2023-02-16T10:16:50.374Z,60.92
2023-02-16T10:17:52.225Z,61.22
2023-02-16T10:18:52.008Z,61.49
2023-02-16T10:19:57.447Z,60.11
2023-02-16T10:20:56.676Z,58.48
2023-02-16T10:22:00.010Z,60.48
2023-02-16T10:23:25.800Z,60.14
2023-02-16T10:24:24.844Z,58.85
2023-02-16T10:25:28.704Z,58.99
2023-02-16T10:26:39.780Z,60.52
2023-02-16T10:27:44.041Z,59.38
2023-02-16T10:28:57.302Z,58.55
2023-02-16T10:29:55.059Z,57.37
2023-02-16T10:31:00.957Z,55.91
2023-02-16T10:32:04.910Z,57.09
2023-02-16T10:33:14.351Z,58.19
2023-02-16T10:34:29.039Z,57.41
2023-02-16T10:35:50.710Z,56.52
2023-02-16T10:37:06.118Z,56.33
2023-02-16T10:38:06.074Z,55.11
2023-02-16T10:39:27.001Z,53.59
2023-02-16T10:40:33.100Z,55.14
2023-02-16T10:41:37.496Z,55.79
2023-02-16T10:42:56.476Z,54.26
2023-02-16T10:44:05.231Z,56.38
2023-02-16T10:45:14.407Z,55.97
2023-02-16T10:46:17.342Z,55.88
2023-02-16T10:47:28.052Z,53.62
2023-02-16T10:48:24.810Z,55.31
2023-02-16T10:49:21.946Z,53.15
2023-02-16T10:50:23.812Z,53.77
2023-02-16T10:51:25.512Z,55.55
2023-02-16T10:52:23.350Z,55.01
2023-02-16T10:53:29.501Z,53.59
2023-02-16T10:54:28.538Z,52.37
2023-02-16T10:55:25.933Z,52.74
2023-02-16T10:56:46.885Z,54.55
2023-02-16T10:57:43.978Z,53.39
2023-02-16T10:58:42.444Z,54.44
2023-02-16T10:59:48.288Z,54.74
2023-02-16T11:01:06.009Z,53.25
2023-02-16T11:02:17.082Z,53.61
2023-02-16T11:03:15.589Z,55.62
2023-02-16T11:04:32.254Z,54.20
2023-02-16T11:05:36.229Z,53.71
2023-02-16T11:06:36.413Z,53.86
2023-02-16T11:07:33.970Z,52.82
2023-02-16T11:08:48.095Z,52.76
2023-02-16T11:09:51.271Z,52.65
2023-02-16T11:10:51.769Z,52.62
2023-02-16T11:11:48.689Z,54.96
2023-02-16T11:12:45.317Z,52.15
2023-02-16T11:13:42.044Z,52.05
2023-02-16T11:14:38.678Z,52.64
2023-02-16T11:15:39.456Z,52.06
2023-02-16T11:16:36.734Z,52.43
2023-02-16T11:17:53.283Z,49.49
2023-02-16T11:19:03.107Z,50.82
2023-02-16T11:20:05.740Z,51.11
2023-02-16T11:21:04.159Z,50.13
2023-02-16T11:22:02.378Z,50.94
2023-02-16T11:23:23.497Z,50.61
2023-02-16T11:24:34.918Z,50.72
2023-02-16T11:25:31.565Z,50.15
2023-02-16T11:26:28.993Z,51.92
2023-02-16T11:27:26.068Z,52.03
2023-02-16T11:28:47.822Z,51.81
2023-02-16T11:29:44.682Z,51.06
2023-02-16T11:30:43.396Z,50.00
2023-02-16T11:31:40.903Z,50.11
2023-02-16T11:32:37.692Z,49.96
2023-02-16T11:33:34.910Z,47.91
2023-02-16T11:34:51.774Z,48.70
2023-02-16T11:35:48.831Z,48.84
2023-02-16T11:36:47.240Z,47.53
2023-02-16T11:37:44.336Z,47.22
2023-02-16T11:38:41.277Z,47.83
2023-02-16T11:39:40.736Z,49.24
2023-02-16T11:40:37.568Z,47.79
2023-02-16T11:41:35.571Z,48.14
2023-02-16T11:42:47.526Z,47.07
2023-02-16T11:43:44.154Z,48.72
2023-02-16T11:44:51.173Z,49.30
2023-02-16T11:46:00.741Z,49.04
2023-02-16T11:46:59.700Z,47.47
2023-02-16T11:48:25.173Z,46.97
2023-02-16T11:49:35.546Z,46.69
2023-02-16T11:50:38.703Z,45.95
2023-02-16T11:51:36.465Z,46.27
2023-02-16T11:52:33.181Z,46.57
2023-02-16T11:53:33.135Z,45.92
2023-02-16T11:54:29.724Z,46.59
2023-02-16T11:55:33.501Z,46.85
2023-02-16T11:56:33.030Z,47.12
2023-02-16T11:57:35.941Z,45.78
2023-02-16T11:58:32.588Z,45.04
2023-02-16T11:59:35.420Z,44.34
2023-02-16T12:00:34.671Z,44.98
2023-02-16T12:01:45.736Z,43.55
2023-02-16T12:03:11.884Z,44.70
2023-02-16T12:04:27.241Z,44.21
2023-02-16T12:05:48.705Z,43.95
2023-02-16T12:07:04.015Z,42.88
2023-02-16T12:08:12.892Z,44.60
2023-02-16T12:09:34.009Z,46.44
2023-02-16T12:10:42.645Z,45.62
2023-02-16T12:12:00.054Z,44.78
2023-02-16T12:13:19.207Z,46.45
2023-02-16T12:14:15.945Z,44.67
2023-02-16T12:15:19.517Z,46.68
2023-02-16T12:16:40.757Z,45.22
2023-02-16T12:17:46.816Z,45.62
2023-02-16T12:18:51.257Z,45.49
2023-02-16T12:20:02.573Z,45.29
2023-02-16T12:21:06.967Z,45.55
2023-02-16T12:22:09.830Z,44.86
2023-02-16T12:23:36.189Z,43.96
2023-02-16T12:25:01.968Z,43.58
2023-02-16T12:26:14.415Z,43.32
2023-02-16T12:27:26.872Z,43.53
2023-02-16T12:28:34.763Z,43.11
2023-02-16T12:29:46.085Z,43.77
2023-02-16T12:30:52.841Z,43.39
2023-02-16T12:31:49.555Z,44.38
2023-02-16T12:32:49.021Z,44.90
2023-02-16T12:34:01.445Z,43.23
2023-02-16T12:35:22.294Z,42.71
2023-02-16T12:36:28.582Z,42.95
2023-02-16T12:37:41.406Z,43.22
2023-02-16T12:38:52.072Z,43.07
2023-02-16T12:40:11.740Z,42.86
2023-02-16T12:41:27.238Z,42.51
2023-02-16T12:42:46.119Z,42.60
2023-02-16T12:43:51.311Z,43.89
2023-02-16T12:44:52.712Z,43.30
2023-02-16T12:45:50.401Z,42.93
2023-02-16T12:46:52.097Z,41.58
2023-02-16T12:47:59.716Z,43.03
2023-02-16T12:49:07.452Z,43.44
2023-02-16T12:50:15.326Z,44.22
2023-02-16T12:51:18.835Z,43.43
2023-02-16T12:52:27.583Z,42.05
2023-02-16T12:53:49.177Z,40.79
2023-02-16T12:54:52.148Z,41.02
2023-02-16T12:55:56.606Z,42.69
2023-02-16T12:57:09.851Z,42.48
2023-02-16T12:58:12.268Z,43.28
2023-02-16T12:59:48.748Z,42.96
2023-02-16T13:00:47.790Z,43.18
2023-02-16T13:01:48.270Z,41.40
2023-02-16T13:02:51.453Z,41.98
2023-02-16T13:03:56.832Z,42.55
2023-02-16T13:05:18.157Z,42.81
2023-02-16T13:06:19.480Z,42.60
2023-02-16T13:07:42.039Z,42.13
2023-02-16T13:08:41.639Z,42.07
2023-02-16T13:09:44.167Z,42.51
2023-02-16T13:10:51.455Z,42.16
2023-02-16T13:12:10.016Z,40.99
2023-02-16T13:13:17.791Z,41.53
2023-02-16T13:14:21.965Z,41.43
2023-02-16T13:15:46.242Z,41.51
2023-02-16T13:16:48.337Z,41.91
2023-02-16T13:18:01.197Z,40.65